Humidity-temperature Sensor

Selected Measurement Type: Air Temperature

 
Air Temperature [°C]     6 entries per hour
Showing data from 8/12/2020 (00:00:00 Z) to 8/5/2020 (00:01:00 Z)
Previous Next [ Day | 3-Days | 7-Days ]
First Last
Prev [ Day | 3-Days | 7-Days ] Next
First Last

Start Time:     :
End Time:     :     
Time (in GMT) :00 :50 :40 :30 :20 :10
Previous Next [ Day | 3-Days | 7-Days ]
First Last
Prev [ Day | 3-Days | 7-Days ] Next
First Last


123 => good data
MM => data is determined as missing
-- => data not received/configured
Back to Top Back to Top
8/12/2020 00:00 to 23:10 26.82 27.21 27.17 27.17 27.14 27.37
8/11/2020 23:00 to 22:10 27.37 27.58 27.46 27.45 27.74 27.62
8/11/2020 22:00 to 21:10 27.57 27.56 27.14 26.99 26.97 27.08
8/11/2020 21:00 to 20:10 27.40 26.95 26.52 26.39 26.23 26.13
8/11/2020 20:00 to 19:10 25.86 26.03 25.72 25.70 25.67 26.02
8/11/2020 19:00 to 18:10 26.30 25.93 25.68 25.82 25.55 26.26
8/11/2020 18:00 to 17:10 26.46 26.48 26.77 27.03 27.22 28.15
8/11/2020 17:00 to 16:10 27.84 27.26 27.01 26.73 26.90 27.13
8/11/2020 16:00 to 15:10 27.46 27.62 27.51 27.52 27.63 27.57
8/11/2020 15:00 to 14:10 27.73 27.61 27.51 27.46 27.48 27.48
8/11/2020 14:00 to 13:10 27.36 27.33 27.12 27.04 27.09 27.07
8/11/2020 13:00 to 12:10 27.03 26.94 26.80 26.82 26.73 26.92
8/11/2020 12:00 to 11:10 26.98 27.15 27.11 27.23 27.28 27.53
8/11/2020 11:00 to 10:10 27.76 28.04 28.44 28.51 28.50 28.45
8/11/2020 10:00 to 9:10 28.51 28.40 28.20 27.90 27.87 27.43
8/11/2020 09:00 to 8:10 27.73 28.56 28.65 28.66 28.67 28.66
8/11/2020 08:00 to 7:10 28.60 28.63 28.60 28.67 28.62 28.60
8/11/2020 07:00 to 6:10 28.67 28.59 28.62 28.67 28.67 28.65
8/11/2020 06:00 to 5:10 28.68 28.63 28.58 28.60 28.65 28.75
8/11/2020 05:00 to 4:10 28.51 28.73 28.75 28.57 28.52 28.73
8/11/2020 04:00 to 3:10 28.60 28.56 28.49 28.64 28.60 28.60
8/11/2020 03:00 to 2:10 28.64 28.63 28.57 28.54 28.65 28.66
8/11/2020 02:00 to 1:10 28.56 28.73 28.63 28.77 28.55 28.73
8/11/2020 01:00 to 0:10 28.85 28.59 28.61 28.66 28.53 28.55
8/11/2020 00:00 to 23:10 28.50 28.50 28.55 28.45 28.60 28.53
8/10/2020 23:00 to 22:10 28.77 28.66 28.83 28.86 28.80 28.76
8/10/2020 22:00 to 21:10 28.69 28.62 28.77 28.61 28.69 28.64
8/10/2020 21:00 to 20:10 28.52 28.54 28.55 28.67 28.68 28.69
8/10/2020 20:00 to 19:10 28.60 28.62 28.58 28.66 28.44 28.50
8/10/2020 19:00 to 18:10 28.65 28.62 28.64 28.64 28.65 28.48
8/10/2020 18:00 to 17:10 28.67 28.52 28.58 28.69 28.40 26.61
8/10/2020 17:00 to 16:10 26.15 26.07 26.22 25.98 25.85 25.82
8/10/2020 16:00 to 15:10 25.85 25.73 25.89 25.84 25.82 26.22
8/10/2020 15:00 to 14:10 25.94 25.74 25.30 25.19 25.04 25.16
8/10/2020 14:00 to 13:10 25.23 25.47 25.52 25.56 25.62 25.75
8/10/2020 13:00 to 12:10 25.87 26.09 25.88 26.42 26.27 26.22
8/10/2020 12:00 to 11:10 26.19 26.26 26.34 26.47 26.46 26.76
8/10/2020 11:00 to 10:10 26.81 27.03 26.91 27.17 27.31 27.31
8/10/2020 10:00 to 9:10 27.25 27.18 27.09 27.02 27.04 27.10
8/10/2020 09:00 to 8:10 26.93 26.88 26.85 26.76 26.89 26.67
8/10/2020 08:00 to 7:10 26.64 26.54 26.51 26.39 26.51 26.36
8/10/2020 07:00 to 6:10 26.34 26.33 26.14 26.14 25.89 26.00
8/10/2020 06:00 to 5:10 25.92 26.00 25.77 25.46 25.48 25.19
8/10/2020 05:00 to 4:10 25.51 25.07 25.06 25.08 24.91 24.65
8/10/2020 04:00 to 3:10 24.78 24.58 24.81 25.22 25.58 25.93
8/10/2020 03:00 to 2:10 25.94 25.96 25.85 25.71 25.72 25.63
8/10/2020 02:00 to 1:10 25.42 25.21 25.18 25.20 25.15 25.29
8/10/2020 01:00 to 0:10 25.30 25.10 25.13 25.03 25.02 24.99
8/10/2020 00:00 to 23:10 25.08 24.77 24.83 24.81 24.82 25.08
8/9/2020 23:00 to 22:10 25.03 24.96 25.03 25.17 25.53 25.22
8/9/2020 22:00 to 21:10 25.57 25.13 25.06 25.64 25.96 26.14
8/9/2020 21:00 to 20:10 26.00 25.95 25.85 25.95 25.97 25.91
8/9/2020 20:00 to 19:10 25.65 26.24 26.41 26.66 26.68 26.78
8/9/2020 19:00 to 18:10 26.69 26.67 26.48 26.42 26.32 26.33
8/9/2020 18:00 to 17:10 26.63 26.82 26.91 27.10 27.07 26.99
8/9/2020 17:00 to 16:10 26.62 26.94 26.74 27.22 27.22 27.19
8/9/2020 16:00 to 15:10 27.18 26.92 27.07 27.00 27.03 27.11
8/9/2020 15:00 to 14:10 26.94 26.78 26.55 25.94 26.00 26.29
8/9/2020 14:00 to 13:10 26.71 26.70 26.18 26.43 26.63 27.18
8/9/2020 13:00 to 12:10 27.89 27.44 27.22 26.99 26.26 26.87
8/9/2020 12:00 to 11:10 26.62 26.54 27.25 27.53 28.51 28.34
8/9/2020 11:00 to 10:10 28.11 28.42 28.48 28.44 28.28 28.28
8/9/2020 10:00 to 9:10 28.23 28.18 28.18 28.06 28.17 28.12
8/9/2020 09:00 to 8:10 27.82 28.63 28.84 28.85 28.81 28.81
8/9/2020 08:00 to 7:10 28.77 28.65 28.60 28.61 28.61 28.53
8/9/2020 07:00 to 6:10 28.52 28.55 28.47 28.50 28.36 28.17
8/9/2020 06:00 to 5:10 27.84 27.55 27.29 26.26 27.08 28.83
8/9/2020 05:00 to 4:10 28.74 28.74 28.54 28.49 28.31 28.51
8/9/2020 04:00 to 3:10 28.31 27.98 28.31 28.61 28.32 28.43
8/9/2020 03:00 to 2:10 28.24 28.19 27.92 27.13 28.42 28.49
8/9/2020 02:00 to 1:10 28.15 27.97 27.27 28.39 28.39 28.21
8/9/2020 01:00 to 0:10 28.57 28.52 28.53 28.44 28.46 28.40
8/9/2020 00:00 to 23:10 28.61 28.43 28.45 28.52 28.52 28.31
8/8/2020 23:00 to 22:10 28.49 28.54 28.46 28.32 28.35 28.49
8/8/2020 22:00 to 21:10 28.34 28.46 28.49 28.46 28.61 28.41
8/8/2020 21:00 to 20:10 28.54 28.35 28.50 28.46 28.55 28.30
8/8/2020 20:00 to 19:10 28.47 28.33 28.42 28.34 28.17 28.16
8/8/2020 19:00 to 18:10 28.18 28.10 28.30 28.29 28.41 28.35
8/8/2020 18:00 to 17:10 28.03 28.12 28.04 28.03 28.15 28.17
8/8/2020 17:00 to 16:10 28.15 28.20 28.06 28.14 28.11 28.18
8/8/2020 16:00 to 15:10 28.15 28.14 28.24 28.15 28.07 28.27
8/8/2020 15:00 to 14:10 28.17 28.22 28.18 28.38 28.27 28.14
8/8/2020 14:00 to 13:10 28.24 28.27 28.16 28.13 28.06 28.18
8/8/2020 13:00 to 12:10 28.05 28.37 28.12 28.07 28.36 28.18
8/8/2020 12:00 to 11:10 28.22 28.10 28.09 28.20 28.20 28.36
8/8/2020 11:00 to 10:10 28.32 28.22 28.27 28.13 28.31 28.44
8/8/2020 10:00 to 9:10 28.31 28.32 28.27 28.22 28.38 28.35
8/8/2020 09:00 to 8:10 28.33 28.30 28.22 28.40 28.28 28.34
8/8/2020 08:00 to 7:10 28.33 28.41 28.30 28.31 28.38 28.31
8/8/2020 07:00 to 6:10 28.34 28.29 28.39 28.35 28.28 28.36
8/8/2020 06:00 to 5:10 28.27 28.25 28.28 28.44 28.43 28.45
8/8/2020 05:00 to 4:10 28.74 28.55 28.49 28.42 28.56 28.66
8/8/2020 04:00 to 3:10 28.90 29.06 29.05 29.20 28.90 28.93
8/8/2020 03:00 to 2:10 28.89 28.87 29.04 29.03 28.95 29.15
8/8/2020 02:00 to 1:10 28.99 29.06 29.08 28.90 28.79 28.77
8/8/2020 01:00 to 0:10 28.75 28.68 28.77 28.75 28.73 28.85
8/8/2020 00:00 to 23:10 28.90 28.87 28.69 28.89 28.66 28.83
8/7/2020 23:00 to 22:10 28.65 28.88 28.83 28.85 28.80 28.79
8/7/2020 22:00 to 21:10 28.76 28.74 28.47 28.66 28.51 28.84
8/7/2020 21:00 to 20:10 28.56 28.45 28.30 29.13 28.95 28.94
8/7/2020 20:00 to 19:10 28.73 28.82 28.87 28.85 28.86 28.91
8/7/2020 19:00 to 18:10 28.89 28.88 28.84 28.84 28.75 28.79
8/7/2020 18:00 to 17:10 28.59 28.77 28.82 28.60 28.64 28.64
8/7/2020 17:00 to 16:10 28.62 28.66 28.64 28.59 28.53 28.61
8/7/2020 16:00 to 15:10 28.53 28.58 28.56 28.63 28.56 28.60
8/7/2020 15:00 to 14:10 28.66 28.59 28.62 28.57 28.61 28.62
8/7/2020 14:00 to 13:10 28.70 28.64 28.65 28.81 28.70 28.71
8/7/2020 13:00 to 12:10 28.67 28.70 28.70 28.71 28.66 28.70
8/7/2020 12:00 to 11:10 28.65 28.67 28.66 28.59 28.59 28.63
8/7/2020 11:00 to 10:10 28.65 28.62 28.71 28.71 28.74 28.83
8/7/2020 10:00 to 9:10 28.75 28.81 28.80 28.81 28.84 28.86
8/7/2020 09:00 to 8:10 28.79 28.87 28.87 28.78 28.85 28.90
8/7/2020 08:00 to 7:10 28.88 28.64 28.02 27.73 28.03 28.16
8/7/2020 07:00 to 6:10 28.26 28.21 28.15 28.12 28.04 27.88
8/7/2020 06:00 to 5:10 27.77 27.83 27.66 27.85 27.94 27.86
8/7/2020 05:00 to 4:10 27.86 27.81 27.89 27.88 27.73 27.84
8/7/2020 04:00 to 3:10 27.76 27.85 27.85 27.86 28.03 27.71
8/7/2020 03:00 to 2:10 27.66 27.55 27.52 27.61 27.74 26.95
8/7/2020 02:00 to 1:10 27.45 27.54 27.56 27.48 27.40 26.94
8/7/2020 01:00 to 0:10 26.73 26.66 26.55 26.42 26.09 26.01
8/7/2020 00:00 to 23:10 25.87 25.83 25.93 25.88 25.71 25.49
8/6/2020 23:00 to 22:10 25.91 26.96 28.37 28.26 28.06 28.03
8/6/2020 22:00 to 21:10 28.06 28.11 27.93 27.74 27.65 27.52
8/6/2020 21:00 to 20:10 27.50 27.02 26.82 27.01 26.60 27.08
8/6/2020 20:00 to 19:10 27.25 27.45 26.97 28.47 28.53 28.32
8/6/2020 19:00 to 18:10 28.23 27.97 28.05 27.70 27.58 27.47
8/6/2020 18:00 to 17:10 27.29 27.31 27.22 26.68 26.82 26.59
8/6/2020 17:00 to 16:10 26.53 26.46 26.34 25.89 26.64 27.37
8/6/2020 16:00 to 15:10 27.30 27.25 27.20 27.12 27.06 26.93
8/6/2020 15:00 to 14:10 26.98 26.98 26.56 26.48 26.36 26.37
8/6/2020 14:00 to 13:10 26.26 26.30 26.42 26.10 26.01 25.74
8/6/2020 13:00 to 12:10 25.76 25.59 25.70 27.43 27.61 27.52
8/6/2020 12:00 to 11:10 27.49 27.59 27.48 27.37 27.23 27.08
8/6/2020 11:00 to 10:10 27.42 27.05 26.85 26.88 26.50 26.35
8/6/2020 10:00 to 9:10 26.43 25.82 25.75 25.25 25.78 26.18
8/6/2020 09:00 to 8:10 26.47 26.78 28.21 28.20 28.28 28.11
8/6/2020 08:00 to 7:10 28.03 28.26 27.95 28.17 27.95 27.96
8/6/2020 07:00 to 6:10 28.22 28.23 28.21 28.41 28.29 28.12
8/6/2020 06:00 to 5:10 28.13 28.16 28.69 28.80 28.70 28.89
8/6/2020 05:00 to 4:10 28.76 28.83 28.61 28.71 28.52 28.53
8/6/2020 04:00 to 3:10 28.75 28.58 28.48 28.59 28.44 28.23
8/6/2020 03:00 to 2:10 27.91 27.74 27.38 27.26 27.60 28.40
8/6/2020 02:00 to 1:10 28.94 28.73 28.84 28.66 28.70 28.33
8/6/2020 01:00 to 0:10 28.34 28.82 28.47 28.57 28.55 28.52
8/6/2020 00:00 to 23:10 28.33 28.52 28.56 28.61 28.52 28.42
8/5/2020 23:00 to 22:10 28.51 28.47 28.20 28.50 28.54 28.49
8/5/2020 22:00 to 21:10 28.52 28.62 28.57 28.51 28.56 28.47
8/5/2020 21:00 to 20:10 28.47 28.58 28.49 28.20 28.18 28.07
8/5/2020 20:00 to 19:10 28.08 27.96 28.01 28.34 28.45 28.35
8/5/2020 19:00 to 18:10 28.47 28.44 28.47 28.41 28.49 28.41
8/5/2020 18:00 to 17:10 28.30 28.33 28.31 28.28 28.25 28.27
8/5/2020 17:00 to 16:10 28.23 28.24 28.39 28.21 28.27 28.34
8/5/2020 16:00 to 15:10 28.18 28.21 28.22 28.39 28.20 28.15
8/5/2020 15:00 to 14:10 28.32 28.28 28.41 28.38 28.30 28.31
8/5/2020 14:00 to 13:10 28.50 28.44 28.32 28.41 28.40 28.31
8/5/2020 13:00 to 12:10 28.39 28.38 28.34 28.38 28.30 28.34
8/5/2020 12:00 to 11:10 28.43 28.43 28.37 28.40 28.43 28.44
8/5/2020 11:00 to 10:10 28.48 28.54 28.43 28.62 28.58 28.49
8/5/2020 10:00 to 9:10 28.58 28.61 28.68 28.59 28.58 28.67
8/5/2020 09:00 to 8:10 28.59 28.49 28.63 28.61 28.62 28.62
8/5/2020 08:00 to 7:10 28.64 28.55 28.77 28.50 28.67 28.80
8/5/2020 07:00 to 6:10 28.59 28.53 28.73 28.52 28.62 28.67
8/5/2020 06:00 to 5:10 28.54 28.61 28.55 28.57 28.77 28.77
8/5/2020 05:00 to 4:10 28.93 29.10 28.80 28.96 29.02 29.09
8/5/2020 04:00 to 3:10 28.95 28.90 28.89 28.81 28.80 28.79
8/5/2020 03:00 to 2:10 29.00 29.07 28.93 28.92 28.74 28.76
8/5/2020 02:00 to 1:10 29.01 28.88 28.93 28.85 28.89 28.85
8/5/2020 01:00 to 0:10 28.78 28.89 28.75 28.76 28.84 28.70